Hovedside
METAR-TAF:

METAR-TAF

Lufthavner :

Portage Glacier, Alaska, USA

breddegrad: 60-47N, lengdegrad: 148-50W, høyde over havet: 29 m

Gjeldene værobservasjon

Denne rapporten ble laget for 1 time og 4 minutter siden, klokken 10:53 UTC
Vind 16 kt fra Sørøst med vindkast opp mot 31 kt, skiftende mellom Øst-sørøst og Sør
Temperatur 2°C
Luftfuktighet 93%
Trykk 1002 hPa
Sikt: 8.0 km
Overskyet i en høyde av 2200 ft
lett regn, dis

METAR: PATO 071053Z AUTO 14016G31KT 110V170 5SM -RA BR OVC022 02/01 A2960 RMK AO2 PK WND 11036/1008 SLP023 P0020 T00220011 TSNO

Tid: 02:57 (11:57 UTC)


TAF: fraværende

Værobservasjoner og værvarsel for over 4000 flyplasser (METAR- og TAF-rapporter).

Tilgjengelige stasjoner er representert av de røde og gule prikkene på kartet.

Hold musepekeren over prikken for å se navnet på stasjonen.

Klikk så for å se værobservasjoner og -varsler.

For å forandre kartet kan du klikke på den grønne knappen med svart kryss for å zoome inn, på den grønne knappen med strek for å zoome ut, eller på de grønne pilene for å se tilstøtende kart.


METAR-TAF: